createdAt,value
2017-01-23T00:00:40.006Z,1009.6
2017-01-23T00:01:50.749Z,1009.57
2017-01-23T00:03:01.086Z,1009.54
2017-01-23T00:04:11.486Z,1009.6
2017-01-23T00:05:21.862Z,1009.6
2017-01-23T00:06:32.604Z,1009.56
2017-01-23T00:07:42.569Z,1009.59
2017-01-23T00:08:53.338Z,1009.58
2017-01-23T00:10:03.290Z,1009.59
2017-01-23T00:11:13.241Z,1009.59
2017-01-23T00:12:23.998Z,1009.64
2017-01-23T00:13:33.967Z,1009.63
2017-01-23T00:14:44.317Z,1009.63
2017-01-23T00:15:55.048Z,1009.62
2017-01-23T00:17:05.396Z,1009.61
2017-01-23T00:18:15.739Z,1009.61
2017-01-23T00:19:26.510Z,1009.66
2017-01-23T00:20:37.255Z,1009.62
2017-01-23T00:21:48.007Z,1009.64
2017-01-23T00:22:58.760Z,1009.59
2017-01-23T00:24:09.109Z,1009.58
2017-01-23T00:25:19.446Z,1009.62
2017-01-23T00:26:30.185Z,1009.57
2017-01-23T00:27:40.950Z,1009.62
2017-01-23T00:28:51.685Z,1009.66
2017-01-23T00:30:02.426Z,1009.65
2017-01-23T00:31:13.180Z,1009.65
2017-01-23T00:32:23.903Z,1009.63
2017-01-23T00:33:34.249Z,1009.6
2017-01-23T00:34:44.997Z,1009.67
2017-01-23T00:35:55.734Z,1009.6
2017-01-23T00:37:06.110Z,1009.72
2017-01-23T00:38:16.856Z,1009.7
2017-01-23T00:39:26.812Z,1009.69
2017-01-23T00:40:37.551Z,1009.71
2017-01-23T00:41:47.896Z,1009.69
2017-01-23T00:42:58.648Z,1009.66
2017-01-23T00:44:09.399Z,1009.64
2017-01-23T00:45:20.136Z,1009.64
2017-01-23T00:46:30.483Z,1009.6
2017-01-23T00:47:41.239Z,1009.56
2017-01-23T00:48:51.585Z,1009.6
2017-01-23T00:50:01.551Z,1009.56
2017-01-23T00:51:11.897Z,1009.64
2017-01-23T00:52:22.283Z,1009.6
2017-01-23T00:53:33.025Z,1009.63
2017-01-23T00:54:42.978Z,1009.61
2017-01-23T00:55:53.709Z,1009.59
2017-01-23T00:57:03.675Z,1009.65
2017-01-23T00:58:14.457Z,1009.58
2017-01-23T00:59:24.819Z,1009.6
2017-01-23T01:00:35.553Z,1009.57
2017-01-23T01:01:45.907Z,1009.57
2017-01-23T01:02:56.243Z,1009.64
2017-01-23T01:04:05.800Z,1009.65
2017-01-23T01:05:16.540Z,1009.62
2017-01-23T01:06:26.904Z,1009.66
2017-01-23T01:07:36.859Z,1009.59
2017-01-23T01:08:47.595Z,1009.56
2017-01-23T01:09:57.543Z,1009.58
2017-01-23T01:11:08.292Z,1009.61
2017-01-23T01:12:18.248Z,1009.63
2017-01-23T01:13:28.607Z,1009.6
2017-01-23T01:14:39.363Z,1009.57
2017-01-23T01:15:50.106Z,1009.59
2017-01-23T01:17:00.457Z,1009.61
2017-01-23T01:18:10.014Z,1009.59
2017-01-23T01:19:20.359Z,1009.58
2017-01-23T01:20:30.693Z,1009.61
2017-01-23T01:21:41.053Z,1009.63
2017-01-23T01:22:51.795Z,1009.57
2017-01-23T01:24:02.541Z,1009.59
2017-01-23T01:25:13.298Z,1009.62
2017-01-23T01:26:24.047Z,1009.6
2017-01-23T01:27:34.786Z,1009.5
2017-01-23T01:28:45.524Z,1009.51
2017-01-23T01:29:56.269Z,1009.51
2017-01-23T01:31:07.012Z,1009.56
2017-01-23T01:32:17.789Z,1009.52
2017-01-23T01:33:27.349Z,1009.54
2017-01-23T01:34:37.717Z,1009.54
2017-01-23T01:35:48.467Z,1009.47
2017-01-23T01:36:59.227Z,1009.52
2017-01-23T01:38:10.008Z,1009.48
2017-01-23T01:39:20.762Z,1009.46
2017-01-23T01:40:31.513Z,1009.53
2017-01-23T01:41:41.463Z,1009.47
2017-01-23T01:42:51.818Z,1009.48
2017-01-23T01:44:02.581Z,1009.48
2017-01-23T01:45:13.362Z,1009.47
2017-01-23T01:46:23.710Z,1009.5
2017-01-23T01:47:34.496Z,1009.49
2017-01-23T01:48:45.235Z,1009.54
2017-01-23T01:49:55.996Z,1009.51
2017-01-23T01:51:06.744Z,1009.55
2017-01-23T01:52:17.478Z,1009.52
2017-01-23T01:53:27.441Z,1009.55
2017-01-23T01:54:37.791Z,1009.51
2017-01-23T01:55:48.549Z,1009.43
2017-01-23T01:56:58.912Z,1009.48
2017-01-23T01:58:09.269Z,1009.41
2017-01-23T01:59:19.617Z,1009.45
2017-01-23T02:00:30.371Z,1009.34
2017-01-23T02:01:41.103Z,1009.37
2017-01-23T02:02:51.843Z,1009.28
2017-01-23T02:04:02.585Z,1009.3
2017-01-23T02:05:13.331Z,1009.34
2017-01-23T02:06:24.072Z,1009.31
2017-01-23T02:07:34.018Z,1009.29
2017-01-23T02:08:44.002Z,1009.3
2017-01-23T02:09:54.355Z,1009.32
2017-01-23T02:11:05.323Z,1009.32
2017-01-23T02:12:16.065Z,1009.32
2017-01-23T02:13:26.407Z,1009.34
2017-01-23T02:14:37.144Z,1009.3
2017-01-23T02:15:47.471Z,1009.36
2017-01-23T02:16:57.828Z,1009.31
2017-01-23T02:18:08.183Z,1009.38
2017-01-23T02:19:18.936Z,1009.43
2017-01-23T02:20:29.683Z,1009.45
2017-01-23T02:21:40.419Z,1009.39
2017-01-23T02:22:49.987Z,1009.42
2017-01-23T02:24:00.713Z,1009.49
2017-01-23T02:25:11.459Z,1009.5
2017-01-23T02:26:22.199Z,1009.54
2017-01-23T02:27:32.949Z,1009.54
2017-01-23T02:28:43.314Z,1009.52
2017-01-23T02:29:53.646Z,1009.56
2017-01-23T02:31:04.055Z,1009.51
2017-01-23T02:32:14.812Z,1009.55
2017-01-23T02:33:25.582Z,1009.48
2017-01-23T02:34:36.333Z,1009.47
2017-01-23T02:35:46.679Z,1009.52
2017-01-23T02:36:57.433Z,1009.52
2017-01-23T02:38:08.183Z,1009.49
2017-01-23T02:39:18.520Z,1009.46
2017-01-23T02:40:29.295Z,1009.43
2017-01-23T02:41:39.648Z,1009.44
2017-01-23T02:42:50.396Z,1009.43
2017-01-23T02:44:00.776Z,1009.43
2017-01-23T02:45:11.120Z,1009.44
2017-01-23T02:46:21.496Z,1009.43
2017-01-23T02:47:32.246Z,1009.43
2017-01-23T02:48:42.218Z,1009.41
2017-01-23T02:49:52.955Z,1009.37
2017-01-23T02:51:03.309Z,1009.38
2017-01-23T02:52:13.665Z,1009.3
2017-01-23T02:53:24.409Z,1009.34
2017-01-23T02:54:34.369Z,1009.31
2017-01-23T02:55:45.125Z,1009.32
2017-01-23T02:56:55.475Z,1009.35
2017-01-23T02:58:05.821Z,1009.34
2017-01-23T02:59:14.985Z,1009.32
2017-01-23T03:00:25.343Z,1009.26
2017-01-23T03:01:35.298Z,1009.3
2017-01-23T03:33:12.019Z,1008.9
2017-01-23T03:34:22.750Z,1008.88
2017-01-23T03:35:33.490Z,1008.89
2017-01-23T03:36:44.225Z,1008.89
2017-01-23T03:37:54.164Z,1008.9
2017-01-23T03:39:04.922Z,1008.83
2017-01-23T03:40:14.883Z,1008.88
2017-01-23T03:41:25.236Z,1008.88
2017-01-23T03:42:35.976Z,1008.89
2017-01-23T03:43:46.319Z,1008.89
2017-01-23T03:44:56.680Z,1008.93
2017-01-23T03:46:07.422Z,1008.86
2017-01-23T03:47:18.154Z,1008.87
2017-01-23T03:48:28.508Z,1008.86
2017-01-23T03:49:39.233Z,1008.85
2017-01-23T03:50:49.574Z,1008.9
2017-01-23T03:51:59.528Z,1008.85
2017-01-23T03:53:10.270Z,1008.81
2017-01-23T03:54:21.040Z,1008.79
2017-01-23T03:55:31.774Z,1008.76
2017-01-23T03:56:41.744Z,1008.78
2017-01-23T03:57:51.702Z,1008.79
2017-01-23T03:59:02.447Z,1008.75
2017-01-23T04:00:13.194Z,1008.74
2017-01-23T04:01:23.951Z,1008.73
2017-01-23T04:02:34.687Z,1008.74
2017-01-23T04:03:44.664Z,1008.73
2017-01-23T04:04:55.010Z,1008.77
2017-01-23T04:06:05.363Z,1008.71
2017-01-23T04:07:15.735Z,1008.75
2017-01-23T04:08:26.082Z,1008.73
2017-01-23T04:09:36.035Z,1008.72
2017-01-23T04:10:46.397Z,1008.7
2017-01-23T04:11:57.152Z,1008.71
2017-01-23T04:13:07.889Z,1008.73
2017-01-23T04:14:18.625Z,1008.67
2017-01-23T04:15:29.377Z,1008.71
2017-01-23T04:16:39.737Z,1008.64
2017-01-23T04:17:49.686Z,1008.67
2017-01-23T04:19:00.030Z,1008.62
2017-01-23T04:20:10.376Z,1008.67
2017-01-23T04:21:21.110Z,1008.69
2017-01-23T04:22:31.459Z,1008.63
2017-01-23T04:23:42.204Z,1008.61
2017-01-23T04:24:52.964Z,1008.58
2017-01-23T04:26:03.765Z,1008.62
2017-01-23T04:27:14.100Z,1008.65
2017-01-23T04:28:23.646Z,1008.59
2017-01-23T04:29:33.599Z,1008.57
2017-01-23T04:30:43.940Z,1008.57
2017-01-23T04:31:54.278Z,1008.57
2017-01-23T04:33:04.628Z,1008.57
2017-01-23T04:34:15.367Z,1008.58
2017-01-23T04:35:25.707Z,1008.63
2017-01-23T04:36:36.450Z,1008.6
2017-01-23T04:37:46.426Z,1008.59
2017-01-23T04:38:57.164Z,1008.63
2017-01-23T04:40:07.906Z,1008.63
2017-01-23T04:41:18.243Z,1008.65
2017-01-23T04:42:28.200Z,1008.66
2017-01-23T04:43:38.609Z,1008.69
2017-01-23T04:44:48.948Z,1008.71
2017-01-23T04:45:59.287Z,1008.73
2017-01-23T04:47:09.642Z,1008.76
2017-01-23T04:48:19.588Z,1008.67
2017-01-23T04:49:29.939Z,1008.71
2017-01-23T04:50:40.290Z,1008.69
2017-01-23T04:51:51.038Z,1008.7
2017-01-23T04:53:01.000Z,1008.68
2017-01-23T04:54:11.779Z,1008.67
2017-01-23T04:55:22.519Z,1008.67
2017-01-23T04:56:33.267Z,1008.65
2017-01-23T04:57:43.651Z,1008.68
2017-01-23T04:58:53.652Z,1008.67
2017-01-23T05:00:04.006Z,1008.63
2017-01-23T05:01:14.767Z,1008.68
2017-01-23T05:02:25.513Z,1008.63
2017-01-23T05:03:36.249Z,1008.67
2017-01-23T05:04:47.031Z,1008.63
2017-01-23T05:05:57.825Z,1008.58
2017-01-23T05:07:08.571Z,1008.57
2017-01-23T05:08:18.937Z,1008.6
2017-01-23T05:09:29.688Z,1008.61
2017-01-23T05:10:40.035Z,1008.61
2017-01-23T05:11:50.376Z,1008.57
2017-01-23T05:13:01.124Z,1008.58
2017-01-23T05:14:11.892Z,1008.6
2017-01-23T05:15:22.627Z,1008.56
2017-01-23T05:16:32.964Z,1008.59
2017-01-23T05:17:43.320Z,1008.59
2017-01-23T05:18:53.693Z,1008.62
2017-01-23T05:20:04.445Z,1008.59
2017-01-23T05:21:14.786Z,1008.58
2017-01-23T05:22:25.528Z,1008.63
2017-01-23T05:23:35.870Z,1008.59
2017-01-23T05:24:46.216Z,1008.65
2017-01-23T05:25:56.172Z,1008.61
2017-01-23T05:27:06.530Z,1008.64
2017-01-23T05:28:17.277Z,1008.65
2017-01-23T05:29:27.622Z,1008.58
2017-01-23T05:30:38.369Z,1008.58
2017-01-23T05:31:48.712Z,1008.56
2017-01-23T05:32:58.673Z,1008.56
2017-01-23T05:34:09.025Z,1008.55
2017-01-23T05:35:18.981Z,1008.56
2017-01-23T05:36:29.781Z,1008.59
2017-01-23T05:37:40.514Z,1008.55
2017-01-23T05:38:50.884Z,1008.52
2017-01-23T05:40:00.827Z,1008.65
2017-01-23T05:41:11.174Z,1008.51
2017-01-23T05:42:21.917Z,1008.55
2017-01-23T05:43:31.468Z,1008.58
2017-01-23T05:44:41.425Z,1008.55
2017-01-23T05:45:51.784Z,1008.48
2017-01-23T05:47:02.521Z,1008.54
2017-01-23T05:48:12.875Z,1008.52
2017-01-23T05:49:23.602Z,1008.51
2017-01-23T05:50:33.956Z,1008.53
2017-01-23T05:51:44.302Z,1008.54
2017-01-23T05:52:55.102Z,1008.55
2017-01-23T05:54:05.844Z,1008.52
2017-01-23T05:55:15.412Z,1008.58
2017-01-23T05:56:26.147Z,1008.6
2017-01-23T05:57:36.105Z,1008.59
2017-01-23T05:58:46.847Z,1008.6
2017-01-23T05:59:57.590Z,1008.6
2017-01-23T06:01:08.344Z,1008.66
2017-01-23T06:02:18.290Z,1008.68
2017-01-23T06:03:29.028Z,1008.66
2017-01-23T06:04:39.380Z,1008.69
2017-01-23T06:05:49.727Z,1008.67
2017-01-23T06:07:00.473Z,1008.73
2017-01-23T06:08:11.218Z,1008.7
2017-01-23T06:09:21.961Z,1008.69
2017-01-23T06:10:32.709Z,1008.74
2017-01-23T06:11:43.454Z,1008.71
2017-01-23T06:12:54.201Z,1008.71
2017-01-23T06:14:04.945Z,1008.73
2017-01-23T06:15:14.896Z,1008.66
2017-01-23T06:16:25.645Z,1008.68
2017-01-23T06:17:36.395Z,1008.68
2017-01-23T06:18:47.145Z,1008.71
2017-01-23T06:19:56.712Z,1008.7
2017-01-23T06:21:07.456Z,1008.72
2017-01-23T06:22:17.815Z,1008.66
2017-01-23T06:23:28.537Z,1008.65
2017-01-23T06:24:38.486Z,1008.68
2017-01-23T06:25:48.821Z,1008.63
2017-01-23T06:26:59.174Z,1008.59
2017-01-23T06:28:09.522Z,1008.67
2017-01-23T06:29:20.280Z,1008.63
2017-01-23T06:30:31.016Z,1008.65
2017-01-23T06:31:41.356Z,1008.64
2017-01-23T06:32:51.687Z,1008.6
2017-01-23T06:34:02.428Z,1008.59
2017-01-23T06:35:12.760Z,1008.59
2017-01-23T06:36:22.706Z,1008.56
2017-01-23T06:37:33.089Z,1008.56
2017-01-23T06:38:43.835Z,1008.59
2017-01-23T06:39:54.581Z,1008.62
2017-01-23T06:41:04.948Z,1008.6
2017-01-23T06:42:15.279Z,1008.59
2017-01-23T06:43:25.641Z,1008.66
2017-01-23T06:44:35.583Z,1008.67
2017-01-23T06:45:45.921Z,1008.67
2017-01-23T06:46:56.266Z,1008.68
2017-01-23T06:48:06.226Z,1008.65
2017-01-23T06:49:16.974Z,1008.65
2017-01-23T06:50:27.340Z,1008.65
2017-01-23T06:51:37.688Z,1008.6
2017-01-23T06:52:47.641Z,1008.63
2017-01-23T06:53:58.381Z,1008.64
2017-01-23T06:55:09.128Z,1008.56
2017-01-23T06:56:19.481Z,1008.58
2017-01-23T06:57:30.211Z,1008.6
2017-01-23T06:58:40.559Z,1008.65
2017-01-23T06:59:51.280Z,1008.64
2017-01-23T07:01:01.633Z,1008.6
2017-01-23T07:02:12.372Z,1008.63
2017-01-23T07:03:22.716Z,1008.61
2017-01-23T07:04:33.476Z,1008.63
2017-01-23T07:05:44.223Z,1008.6
2017-01-23T07:06:54.955Z,1008.58
2017-01-23T07:08:05.308Z,1008.56
2017-01-23T07:09:15.660Z,1008.55
2017-01-23T07:10:25.601Z,1008.55
2017-01-23T07:11:35.957Z,1008.52
2017-01-23T07:12:46.695Z,1008.55
2017-01-23T07:13:57.043Z,1008.57
2017-01-23T07:15:07.383Z,1008.55
2017-01-23T07:16:17.746Z,1008.55
2017-01-23T07:17:27.691Z,1008.53
2017-01-23T07:18:38.468Z,1008.52
2017-01-23T07:19:49.203Z,1008.57
2017-01-23T07:20:59.932Z,1008.59
2017-01-23T07:22:10.268Z,1008.58
2017-01-23T07:23:21.009Z,1008.52
2017-01-23T07:24:30.956Z,1008.54
2017-01-23T07:25:41.695Z,1008.54
2017-01-23T07:26:52.425Z,1008.51
2017-01-23T07:28:03.160Z,1008.55
2017-01-23T07:29:13.508Z,1008.53
2017-01-23T07:30:24.231Z,1008.56
2017-01-23T07:31:34.582Z,1008.57
2017-01-23T07:32:44.529Z,1008.51
2017-01-23T07:33:54.893Z,1008.55
2017-01-23T07:35:05.627Z,1008.57
2017-01-23T07:36:15.979Z,1008.57
2017-01-23T07:37:26.329Z,1008.51
2017-01-23T07:38:36.677Z,1008.52
2017-01-23T07:39:47.423Z,1008.48
2017-01-23T07:40:58.145Z,1008.55
2017-01-23T07:42:08.116Z,1008.52
2017-01-23T07:43:18.069Z,1008.49
2017-01-23T07:44:28.399Z,1008.53
2017-01-23T07:45:38.730Z,1008.51
2017-01-23T07:46:49.488Z,1008.52
2017-01-23T07:48:00.260Z,1008.51
2017-01-23T07:49:11.010Z,1008.53
2017-01-23T07:50:21.388Z,1008.5
2017-01-23T07:51:31.736Z,1008.55
2017-01-23T07:52:41.298Z,1008.56
2017-01-23T07:53:51.649Z,1008.53
2017-01-23T07:55:02.394Z,1008.51
2017-01-23T07:56:13.141Z,1008.56
2017-01-23T07:57:23.096Z,1008.56
2017-01-23T07:58:33.834Z,1008.59
2017-01-23T07:59:44.236Z,1008.55
2017-01-23T08:00:54.575Z,1008.61
2017-01-23T08:02:04.961Z,1008.57
2017-01-23T08:03:15.722Z,1008.58
2017-01-23T08:04:26.467Z,1008.58
2017-01-23T08:05:36.456Z,1008.59
2017-01-23T08:06:47.208Z,1008.65
2017-01-23T08:07:57.162Z,1008.58
2017-01-23T08:09:07.508Z,1008.63
2017-01-23T08:10:18.238Z,1008.61
2017-01-23T08:11:28.595Z,1008.57
2017-01-23T08:12:38.967Z,1008.61
2017-01-23T08:13:48.924Z,1008.59
2017-01-23T08:14:59.273Z,1008.65
2017-01-23T08:16:08.813Z,1008.71
2017-01-23T08:17:19.163Z,1008.66
2017-01-23T08:18:29.516Z,1008.64
2017-01-23T08:19:40.272Z,1008.7
2017-01-23T08:20:51.021Z,1008.73
2017-01-23T08:22:01.369Z,1008.74
2017-01-23T08:23:11.325Z,1008.68
2017-01-23T08:24:22.059Z,1008.71
2017-01-23T08:25:32.792Z,1008.63
2017-01-23T08:26:43.511Z,1008.64
2017-01-23T08:27:54.278Z,1008.72
2017-01-23T08:29:05.013Z,1008.67
2017-01-23T08:30:15.352Z,1008.74
2017-01-23T08:31:26.103Z,1008.73
2017-01-23T08:32:36.829Z,1008.7
2017-01-23T08:33:47.576Z,1008.75
2017-01-23T08:34:58.312Z,1008.73
2017-01-23T08:36:09.057Z,1008.81
2017-01-23T08:37:19.796Z,1008.84
2017-01-23T08:38:30.528Z,1008.79
2017-01-23T08:39:40.478Z,1008.77
2017-01-23T08:40:51.225Z,1008.75
2017-01-23T08:42:01.969Z,1008.8
2017-01-23T08:43:12.715Z,1008.82
2017-01-23T08:44:23.472Z,1008.86
2017-01-23T08:45:33.818Z,1008.85
2017-01-23T08:46:44.165Z,1008.77
2017-01-23T08:47:54.911Z,1008.82
2017-01-23T08:49:04.868Z,1008.82
2017-01-23T08:50:15.214Z,1008.79
2017-01-23T08:51:25.553Z,1008.76
2017-01-23T08:52:35.499Z,1008.86
2017-01-23T08:53:45.838Z,1008.83
2017-01-23T08:54:56.578Z,1008.84
2017-01-23T08:56:06.938Z,1008.86
2017-01-23T08:57:17.694Z,1008.86
2017-01-23T08:58:27.635Z,1008.87
2017-01-23T08:59:38.378Z,1008.83
2017-01-23T09:00:49.119Z,1008.85
2017-01-23T09:01:59.071Z,1008.82
2017-01-23T09:03:09.823Z,1008.82
2017-01-23T09:04:20.586Z,1008.86
2017-01-23T09:05:30.928Z,1008.85
2017-01-23T09:06:41.278Z,1008.86
2017-01-23T09:07:52.000Z,1008.89
2017-01-23T09:09:01.948Z,1008.84
2017-01-23T09:10:12.679Z,1008.88
2017-01-23T09:11:22.615Z,1008.86
2017-01-23T09:12:32.961Z,1008.86
2017-01-23T09:13:43.291Z,1008.92
2017-01-23T09:14:54.035Z,1008.96
2017-01-23T09:16:04.390Z,1008.96
2017-01-23T09:17:15.131Z,1008.91
2017-01-23T09:18:25.867Z,1008.94
2017-01-23T09:19:36.223Z,1008.9
2017-01-23T09:20:46.550Z,1008.93
2017-01-23T09:21:57.301Z,1008.87
2017-01-23T09:23:07.660Z,1008.91
2017-01-23T09:24:18.011Z,1008.86
2017-01-23T09:25:28.362Z,1008.88
2017-01-23T09:26:39.091Z,1008.9
2017-01-23T09:27:49.862Z,1008.91
2017-01-23T09:28:59.807Z,1008.92
2017-01-23T09:30:09.773Z,1008.93
2017-01-23T09:31:20.539Z,1008.95
2017-01-23T09:32:30.872Z,1008.94
2017-01-23T09:33:40.434Z,1008.96
2017-01-23T09:34:51.168Z,1008.95
2017-01-23T09:36:01.509Z,1008.96
2017-01-23T09:37:11.457Z,1008.97
2017-01-23T09:38:21.792Z,1008.91
2017-01-23T09:39:32.132Z,1008.88
2017-01-23T09:40:42.870Z,1008.87
2017-01-23T09:41:53.641Z,1008.87
2017-01-23T09:43:03.610Z,1008.83
2017-01-23T09:44:14.350Z,1008.82
2017-01-23T09:45:25.111Z,1008.8
2017-01-23T09:46:35.881Z,1008.79
2017-01-23T09:47:46.060Z,1008.8
2017-01-23T09:48:56.801Z,1008.74
2017-01-23T09:50:06.349Z,1008.73
2017-01-23T09:51:17.100Z,1008.66
2017-01-23T09:52:27.832Z,1008.76
2017-01-23T09:53:38.179Z,1008.73
2017-01-23T09:54:48.533Z,1008.71
2017-01-23T09:55:59.283Z,1008.73
2017-01-23T09:57:09.266Z,1008.68
2017-01-23T09:58:20.000Z,1008.71
2017-01-23T09:59:30.777Z,1008.7
2017-01-23T10:00:41.152Z,1008.7
2017-01-23T10:01:51.497Z,1008.66
2017-01-23T10:03:02.247Z,1008.66
2017-01-23T10:04:12.589Z,1008.62
2017-01-23T10:05:23.355Z,1008.67
2017-01-23T10:06:34.097Z,1008.68
2017-01-23T10:07:44.469Z,1008.61
2017-01-23T10:08:54.852Z,1008.59
2017-01-23T10:10:05.598Z,1008.55
2017-01-23T10:11:15.957Z,1008.55
2017-01-23T10:12:26.692Z,1008.57
2017-01-23T10:13:37.460Z,1008.58
2017-01-23T10:14:47.819Z,1008.55
2017-01-23T10:15:58.566Z,1008.62
2017-01-23T10:17:08.948Z,1008.59
2017-01-23T10:18:19.354Z,1008.56
2017-01-23T10:19:28.908Z,1008.51
2017-01-23T10:20:39.684Z,1008.56
2017-01-23T10:21:49.665Z,1008.57
2017-01-23T10:23:00.656Z,1008.56
2017-01-23T10:24:11.415Z,1008.51
2017-01-23T10:25:21.769Z,1008.51
2017-01-23T10:26:32.527Z,1008.53
2017-01-23T10:27:42.920Z,1008.49
2017-01-23T10:28:53.256Z,1008.5
2017-01-23T10:30:02.817Z,1008.49
2017-01-23T10:31:13.175Z,1008.49
2017-01-23T10:32:23.540Z,1008.49
2017-01-23T10:33:34.272Z,1008.51
2017-01-23T10:34:45.044Z,1008.4
2017-01-23T10:35:55.410Z,1008.39
2017-01-23T10:37:05.363Z,1008.44
2017-01-23T10:38:16.136Z,1008.39
2017-01-23T10:39:26.909Z,1008.43
2017-01-23T10:40:37.658Z,1008.34
2017-01-23T10:41:48.024Z,1008.35
2017-01-23T10:42:58.362Z,1008.35
2017-01-23T10:44:09.373Z,1008.35
2017-01-23T10:45:19.714Z,1008.35
2017-01-23T10:46:30.105Z,1008.4
2017-01-23T10:47:40.446Z,1008.35
2017-01-23T10:48:51.194Z,1008.37
2017-01-23T10:50:01.537Z,1008.28
2017-01-23T10:51:11.892Z,1008.37
2017-01-23T10:52:21.844Z,1008.33
2017-01-23T10:53:31.812Z,1008.34
2017-01-23T10:54:42.183Z,1008.26
2017-01-23T10:55:52.525Z,1008.32
2017-01-23T10:57:02.878Z,1008.26
2017-01-23T10:58:13.244Z,1008.28
2017-01-23T10:59:23.592Z,1008.3
2017-01-23T11:00:34.338Z,1008.24
2017-01-23T11:01:44.688Z,1008.27
2017-01-23T11:02:55.041Z,1008.23
2017-01-23T11:04:05.819Z,1008.27
2017-01-23T11:05:16.624Z,1008.26
2017-01-23T11:06:26.580Z,1008.21
2017-01-23T11:07:37.323Z,1008.27
2017-01-23T11:08:47.679Z,1008.27
2017-01-23T11:09:58.468Z,1008.25
2017-01-23T11:11:09.206Z,1008.26
2017-01-23T11:12:19.970Z,1008.2
2017-01-23T11:13:30.328Z,1008.21
2017-01-23T11:14:41.087Z,1008.19
2017-01-23T11:15:51.880Z,1008.18
2017-01-23T11:17:02.227Z,1008.2
2017-01-23T11:18:12.603Z,1008.18
2017-01-23T11:19:22.563Z,1008.19
2017-01-23T11:20:33.304Z,1008.16
2017-01-23T11:21:44.049Z,1008.12
2017-01-23T11:22:54.863Z,1008.1
2017-01-23T11:24:05.613Z,1008.11
2017-01-23T11:25:16.353Z,1008.12
2017-01-23T11:26:26.727Z,1008.08
2017-01-23T11:27:37.091Z,1008.04
2017-01-23T11:28:47.455Z,1008.06
2017-01-23T11:29:58.194Z,1008.04
2017-01-23T11:31:08.936Z,1008.01
2017-01-23T11:32:19.687Z,1008.02
2017-01-23T11:33:29.641Z,1007.95
2017-01-23T11:34:40.025Z,1007.96
2017-01-23T11:35:50.787Z,1007.93
2017-01-23T11:37:01.186Z,1007.89
2017-01-23T11:38:11.946Z,1007.97
2017-01-23T11:39:22.294Z,1007.9
2017-01-23T11:40:32.652Z,1007.93
2017-01-23T11:41:43.041Z,1007.97
2017-01-23T11:42:52.993Z,1007.98
2017-01-23T11:44:03.764Z,1007.95
2017-01-23T11:45:14.124Z,1007.96
2017-01-23T11:46:24.892Z,1007.95
2017-01-23T11:47:35.650Z,1007.99
2017-01-23T11:48:46.391Z,1007.96
2017-01-23T11:49:56.333Z,1007.96
2017-01-23T11:51:06.313Z,1007.93
2017-01-23T11:52:15.878Z,1007.91
2017-01-23T11:53:26.235Z,1007.87
2017-01-23T11:54:36.845Z,1007.9
2017-01-23T11:55:47.585Z,1007.9
2017-01-23T11:56:58.340Z,1007.9
2017-01-23T11:58:08.704Z,1007.92
2017-01-23T11:59:19.053Z,1007.9
2017-01-23T12:00:29.805Z,1007.89
2017-01-23T12:01:40.574Z,1007.87
2017-01-23T12:02:51.336Z,1007.86
2017-01-23T12:04:01.311Z,1007.86
2017-01-23T12:05:10.876Z,1007.82
2017-01-23T12:06:21.621Z,1007.8
2017-01-23T12:07:32.400Z,1007.8
2017-01-23T12:08:42.757Z,1007.81
2017-01-23T12:09:53.523Z,1007.74
2017-01-23T12:11:03.913Z,1007.72
2017-01-23T12:12:13.888Z,1007.73
2017-01-23T12:13:23.841Z,1007.68
2017-01-23T12:14:34.602Z,1007.69
2017-01-23T12:15:45.367Z,1007.64
2017-01-23T12:16:56.129Z,1007.56
2017-01-23T12:18:06.483Z,1007.61
2017-01-23T12:19:17.257Z,1007.57
2017-01-23T12:20:28.046Z,1007.59
2017-01-23T12:21:38.817Z,1007.59
2017-01-23T12:22:49.583Z,1007.53
2017-01-23T12:24:00.394Z,1007.58
2017-01-23T12:25:11.137Z,1007.54
2017-01-23T12:26:21.511Z,1007.55
2017-01-23T12:27:31.875Z,1007.51
2017-01-23T12:28:42.233Z,1007.55
2017-01-23T12:29:52.974Z,1007.56
2017-01-23T12:31:03.313Z,1007.53
2017-01-23T12:32:13.655Z,1007.5
2017-01-23T12:33:24.412Z,1007.53
2017-01-23T12:34:34.369Z,1007.52
2017-01-23T12:35:45.119Z,1007.5
2017-01-23T12:36:55.480Z,1007.47
2017-01-23T12:38:06.225Z,1007.49
2017-01-23T12:39:16.627Z,1007.45
2017-01-23T12:40:26.589Z,1007.43
2017-01-23T12:41:37.326Z,1007.41
2017-01-23T12:42:47.286Z,1007.42
2017-01-23T12:43:58.024Z,1007.35
2017-01-23T12:45:08.756Z,1007.33
2017-01-23T12:46:19.108Z,1007.29
2017-01-23T12:47:29.063Z,1007.3
2017-01-23T12:48:39.663Z,1007.25
2017-01-23T12:49:50.407Z,1007.24
2017-01-23T12:51:00.373Z,1007.22
2017-01-23T12:52:09.930Z,1007.21
2017-01-23T12:53:20.689Z,1007.22
2017-01-23T12:54:30.246Z,1007.24
2017-01-23T12:55:40.986Z,1007.23
2017-01-23T12:56:51.343Z,1007.24
2017-01-23T12:58:02.103Z,1007.19
2017-01-23T12:59:12.447Z,1007.21
2017-01-23T13:00:22.034Z,1007.2
2017-01-23T13:01:31.976Z,1007.25
2017-01-23T13:02:42.756Z,1007.23
2017-01-23T13:03:53.493Z,1007.19
2017-01-23T13:05:03.846Z,1007.22
2017-01-23T13:06:14.183Z,1007.19
2017-01-23T13:07:24.145Z,1007.18
2017-01-23T13:08:34.883Z,1007.19
2017-01-23T13:09:45.639Z,1007.2
2017-01-23T13:10:55.983Z,1007.21
2017-01-23T13:12:06.344Z,1007.17
2017-01-23T13:13:16.287Z,1007.18
2017-01-23T13:14:27.038Z,1007.17
2017-01-23T13:15:37.810Z,1007.19
2017-01-23T13:16:48.156Z,1007.18
2017-01-23T13:17:58.899Z,1007.16
2017-01-23T13:19:09.250Z,1007.16
2017-01-23T13:20:19.607Z,1007.17
2017-01-23T13:21:30.343Z,1007.15
2017-01-23T13:22:40.303Z,1007.15
2017-01-23T13:23:50.690Z,1007.19
2017-01-23T13:25:01.428Z,1007.18
2017-01-23T13:26:10.582Z,1007.17
2017-01-23T13:27:21.320Z,1007.18
2017-01-23T13:28:32.066Z,1007.21
2017-01-23T13:29:42.807Z,1007.22
2017-01-23T13:30:53.160Z,1007.22
2017-01-23T13:32:03.135Z,1007.25
2017-01-23T13:33:13.520Z,1007.25
2017-01-23T13:34:23.897Z,1007.28
2017-01-23T13:35:34.670Z,1007.25
2017-01-23T13:36:45.034Z,1007.29
2017-01-23T13:37:55.804Z,1007.33
2017-01-23T13:39:05.769Z,1007.34
2017-01-23T13:40:16.163Z,1007.3
2017-01-23T13:41:26.532Z,1007.31
2017-01-23T13:42:37.327Z,1007.33
2017-01-23T13:43:47.703Z,1007.31
2017-01-23T13:44:58.070Z,1007.3
2017-01-23T13:46:08.923Z,1007.26
2017-01-23T13:47:19.704Z,1007.31
2017-01-23T13:48:29.690Z,1007.27
2017-01-23T13:49:40.445Z,1007.24
2017-01-23T13:50:51.255Z,1007.26
2017-01-23T13:52:02.033Z,1007.22
2017-01-23T13:53:12.811Z,1007.23
2017-01-23T13:54:23.576Z,1007.21
2017-01-23T13:55:33.963Z,1007.23
2017-01-23T13:56:44.323Z,1007.24
2017-01-23T13:57:54.666Z,1007.25
2017-01-23T13:59:05.417Z,1007.25
2017-01-23T14:00:16.157Z,1007.25
2017-01-23T14:01:26.545Z,1007.25
2017-01-23T14:02:37.547Z,1007.18
2017-01-23T14:03:48.308Z,1007.25
2017-01-23T14:04:58.668Z,1007.24
2017-01-23T14:06:09.024Z,1007.25
2017-01-23T14:07:19.384Z,1007.27
2017-01-23T14:08:30.118Z,1007.24
2017-01-23T14:09:40.874Z,1007.25
2017-01-23T14:10:51.629Z,1007.22
2017-01-23T14:12:01.994Z,1007.26
2017-01-23T14:13:11.956Z,1007.25
2017-01-23T14:14:22.706Z,1007.22
2017-01-23T14:15:33.489Z,1007.25
2017-01-23T14:16:44.250Z,1007.2
2017-01-23T14:17:54.604Z,1007.2
2017-01-23T14:19:04.955Z,1007.21
2017-01-23T14:20:15.714Z,1007.19
2017-01-23T14:21:26.479Z,1007.2
2017-01-23T14:22:37.241Z,1007.21
2017-01-23T14:23:47.982Z,1007.17
2017-01-23T14:24:58.748Z,1007.16
2017-01-23T14:26:09.520Z,1007.17
2017-01-23T14:27:20.278Z,1007.12
2017-01-23T14:28:31.079Z,1007.09
2017-01-23T14:29:41.451Z,1007.08
2017-01-23T14:30:52.249Z,1007.08
2017-01-23T14:32:02.613Z,1007.08
2017-01-23T14:33:12.971Z,1007.1
2017-01-23T14:34:23.310Z,1007.08
2017-01-23T14:35:34.056Z,1007.07
2017-01-23T14:36:44.804Z,1007.1
2017-01-23T14:37:55.141Z,1007.05
2017-01-23T14:39:05.106Z,1007.05
2017-01-23T14:40:15.846Z,1007.02
2017-01-23T14:41:26.216Z,1007.03
2017-01-23T14:42:36.946Z,1006.99
2017-01-23T14:43:47.682Z,1006.98
2017-01-23T14:44:58.431Z,1006.95
2017-01-23T14:46:09.023Z,1006.99